createdAt,value
2023-01-03T00:01:32.001Z,20.37
2023-01-03T00:05:13.914Z,22.40
2023-01-03T00:08:57.457Z,20.40
2023-01-03T00:12:39.510Z,17.73
2023-01-03T00:16:21.632Z,18.20
2023-01-03T00:20:03.804Z,15.40
2023-01-03T00:23:45.916Z,100.77
2023-01-03T00:27:27.917Z,25.10
2023-01-03T00:31:12.721Z,19.90
2023-01-03T00:34:56.845Z,18.13
2023-01-03T00:38:43.248Z,16.57
2023-01-03T00:42:25.222Z,18.80
2023-01-03T00:46:08.362Z,18.07
2023-01-03T00:49:50.366Z,15.23
2023-01-03T00:53:32.329Z,16.23
2023-01-03T00:57:14.421Z,16.43
2023-01-03T01:00:56.558Z,18.53
2023-01-03T01:04:38.583Z,15.07
2023-01-03T01:08:20.525Z,18.47
2023-01-03T01:12:05.266Z,16.70
2023-01-03T01:15:47.234Z,14.77
2023-01-03T01:19:32.537Z,16.93
2023-01-03T01:23:14.528Z,17.60
2023-01-03T01:26:56.759Z,17.17
2023-01-03T01:30:39.130Z,13.60
2023-01-03T01:34:21.358Z,16.87
2023-01-03T01:38:03.350Z,15.23
2023-01-03T01:42:05.287Z,15.90
2023-01-03T01:45:48.427Z,13.97
2023-01-03T01:49:30.819Z,14.00
2023-01-03T01:53:22.654Z,17.27
2023-01-03T01:57:04.619Z,16.83
2023-01-03T02:00:47.788Z,12.93
2023-01-03T02:04:34.153Z,15.93
2023-01-03T02:08:16.504Z,14.82
2023-01-03T02:12:25.760Z,13.90
2023-01-03T02:16:07.742Z,12.97
2023-01-03T02:19:58.947Z,18.53
2023-01-03T02:24:14.756Z,15.67
2023-01-03T02:28:14.960Z,14.70
2023-01-03T02:32:12.059Z,14.57
2023-01-03T02:36:11.759Z,13.50
2023-01-03T02:40:37.178Z,13.03
2023-01-03T02:44:23.684Z,12.60
2023-01-03T02:48:23.242Z,13.02
2023-01-03T02:52:10.628Z,11.77
2023-01-03T02:55:55.682Z,12.23
2023-01-03T02:59:52.401Z,14.37
2023-01-03T03:03:39.001Z,13.55
2023-01-03T03:11:26.515Z,11.57
2023-01-03T03:15:12.175Z,12.13
2023-01-03T03:18:59.111Z,13.13
2023-01-03T03:23:01.692Z,12.60
2023-01-03T03:26:45.087Z,12.27
2023-01-03T03:30:30.707Z,15.80
2023-01-03T03:34:15.579Z,12.03
2023-01-03T03:38:00.900Z,12.50
2023-01-03T03:42:07.766Z,10.13
2023-01-03T03:46:23.700Z,12.40
2023-01-03T03:50:24.933Z,9.73
2023-01-03T03:54:11.331Z,15.17
2023-01-03T03:58:00.131Z,13.15
2023-01-03T04:01:43.378Z,15.37
2023-01-03T04:05:29.600Z,16.20
2023-01-03T04:09:11.944Z,12.95
2023-01-03T04:12:53.979Z,10.33
2023-01-03T04:16:37.750Z,11.47
2023-01-03T04:20:20.047Z,7.20
2023-01-03T04:24:02.072Z,7.83
2023-01-03T04:27:43.971Z,6.90
2023-01-03T04:31:26.038Z,10.87
2023-01-03T04:35:08.591Z,4.93
2023-01-03T04:38:50.520Z,4.73
2023-01-03T04:42:50.955Z,6.67
2023-01-03T04:46:35.703Z,6.60
2023-01-03T04:50:17.653Z,6.83
2023-01-03T04:54:00.230Z,6.90
2023-01-03T04:57:42.231Z,7.77
2023-01-03T05:01:24.509Z,8.00
2023-01-03T05:05:07.484Z,6.87
2023-01-03T05:08:50.958Z,9.80
2023-01-03T05:12:33.045Z,8.47
2023-01-03T05:16:15.723Z,9.97
2023-01-03T05:20:16.089Z,10.10
2023-01-03T05:24:17.049Z,12.83
2023-01-03T05:28:00.689Z,14.63
2023-01-03T05:31:42.755Z,8.10
2023-01-03T05:35:24.866Z,9.70
2023-01-03T05:39:08.229Z,7.77
2023-01-03T05:42:50.413Z,7.43
2023-01-03T05:46:33.273Z,8.80
2023-01-03T05:50:15.453Z,10.80
2023-01-03T05:53:57.995Z,9.93
2023-01-03T05:57:40.161Z,13.23
2023-01-03T06:01:22.254Z,11.17
2023-01-03T06:05:05.122Z,10.37
2023-01-03T06:08:47.127Z,12.57
2023-01-03T06:12:29.727Z,12.93
2023-01-03T06:16:35.869Z,12.83
2023-01-03T06:20:20.370Z,9.67
2023-01-03T06:24:02.459Z,13.77
2023-01-03T06:27:44.484Z,16.80
2023-01-03T06:31:27.115Z,9.00
2023-01-03T06:35:09.637Z,10.43
2023-01-03T06:38:52.270Z,16.80
2023-01-03T06:42:45.456Z,19.07
2023-01-03T06:46:46.136Z,12.20
2023-01-03T06:50:46.942Z,12.80
2023-01-03T06:54:34.925Z,15.23
2023-01-03T06:58:17.094Z,18.00
2023-01-03T07:01:59.181Z,18.23
2023-01-03T07:05:41.399Z,25.27
2023-01-03T07:09:27.992Z,14.50
2023-01-03T07:13:28.672Z,17.03
2023-01-03T07:17:10.748Z,21.57
2023-01-03T07:20:53.101Z,21.00
2023-01-03T07:24:35.133Z,18.43
2023-01-03T07:28:17.532Z,20.17
2023-01-03T07:31:59.931Z,21.93
2023-01-03T07:35:42.087Z,17.27
2023-01-03T07:39:26.670Z,20.80
2023-01-03T07:43:30.610Z,15.60
2023-01-03T07:47:16.693Z,25.00
2023-01-03T07:50:59.540Z,11.80
2023-01-03T07:54:41.705Z,21.07
2023-01-03T07:58:23.817Z,16.13
2023-01-03T08:02:06.462Z,14.13
2023-01-03T08:05:48.684Z,20.53
2023-01-03T08:09:50.112Z,13.90
2023-01-03T08:13:32.340Z,13.23
2023-01-03T08:17:17.219Z,15.37
2023-01-03T08:21:00.352Z,14.20
2023-01-03T08:24:42.656Z,15.17
2023-01-03T08:28:25.007Z,15.93
2023-01-03T08:32:07.474Z,17.80
2023-01-03T08:36:03.747Z,10.23
2023-01-03T08:40:00.119Z,11.93
2023-01-03T08:43:45.176Z,12.13
2023-01-03T08:47:28.540Z,16.57
2023-01-03T08:51:11.733Z,14.03
2023-01-03T08:54:53.752Z,9.93
2023-01-03T08:58:37.266Z,11.87
2023-01-03T09:02:19.781Z,13.20
2023-01-03T09:06:03.500Z,14.33
2023-01-03T09:09:45.572Z,15.90
2023-01-03T09:13:27.784Z,11.60
2023-01-03T09:17:13.413Z,10.33
2023-01-03T09:20:55.786Z,14.02
2023-01-03T09:24:42.346Z,24.43
2023-01-03T09:28:27.186Z,15.30
2023-01-03T09:36:11.677Z,21.27
2023-01-03T09:39:54.911Z,7.80
2023-01-03T09:43:41.491Z,12.13
2023-01-03T09:47:26.860Z,9.17
2023-01-03T09:51:36.595Z,9.47
2023-01-03T09:56:13.590Z,13.10
2023-01-03T10:00:14.560Z,12.97
2023-01-03T10:04:35.058Z,16.40
2023-01-03T10:13:01.772Z,28.20
2023-01-03T10:17:23.002Z,17.53
2023-01-03T10:22:12.123Z,13.50
2023-01-03T10:25:57.276Z,13.30
2023-01-03T10:33:55.090Z,6.63
2023-01-03T10:42:08.402Z,13.10
2023-01-03T10:50:49.410Z,8.43
2023-01-03T10:55:00.818Z,7.53
2023-01-03T10:58:47.558Z,8.47
2023-01-03T11:07:38.666Z,6.23
2023-01-03T11:11:45.099Z,10.43
2023-01-03T11:15:41.406Z,9.35
2023-01-03T11:19:33.440Z,18.37
2023-01-03T11:23:44.082Z,15.93
2023-01-03T11:28:15.591Z,12.97
2023-01-03T11:32:28.030Z,13.60
2023-01-03T11:36:48.861Z,21.07
2023-01-03T11:45:55.785Z,16.87
2023-01-03T11:54:27.052Z,20.25
2023-01-03T11:58:22.989Z,23.93
2023-01-03T12:02:40.864Z,19.58
2023-01-03T12:06:39.001Z,18.57
2023-01-03T12:10:52.541Z,23.03
2023-01-03T12:14:44.023Z,26.97
2023-01-03T12:19:20.213Z,28.07
2023-01-03T12:23:24.631Z,31.57
2023-01-03T12:27:31.343Z,40.77
2023-01-03T12:31:32.603Z,29.17
2023-01-03T12:35:41.508Z,34.53
2023-01-03T12:39:55.520Z,38.00
2023-01-03T12:43:55.825Z,40.63
2023-01-03T12:47:49.273Z,32.63
2023-01-03T12:51:35.429Z,41.67
2023-01-03T12:55:25.097Z,24.70
2023-01-03T12:59:40.638Z,36.37
2023-01-03T13:03:40.783Z,43.90
2023-01-03T13:07:30.738Z,32.23
2023-01-03T13:11:38.334Z,35.13
2023-01-03T13:15:37.767Z,39.37
2023-01-03T13:19:24.210Z,32.97
2023-01-03T13:23:36.369Z,37.27
2023-01-03T13:27:18.814Z,27.27
2023-01-03T13:31:19.055Z,21.07
2023-01-03T13:35:01.165Z,34.40
2023-01-03T13:38:47.574Z,29.27
2023-01-03T13:46:25.071Z,28.13
2023-01-03T13:50:19.271Z,27.57
2023-01-03T13:54:13.590Z,19.83
2023-01-03T13:57:57.227Z,24.43
2023-01-03T14:01:57.937Z,16.00
2023-01-03T14:05:56.560Z,20.70
2023-01-03T14:10:06.944Z,28.20
2023-01-03T14:13:56.409Z,22.50
2023-01-03T14:17:41.707Z,19.90
2023-01-03T14:21:28.171Z,19.40
2023-01-03T14:25:42.801Z,14.13
2023-01-03T14:29:27.132Z,14.63
2023-01-03T14:33:23.432Z,17.70
2023-01-03T14:37:20.539Z,12.82
2023-01-03T14:41:03.674Z,14.53
2023-01-03T14:45:22.941Z,13.90
2023-01-03T14:49:25.709Z,19.77
2023-01-03T14:53:16.995Z,10.17
2023-01-03T14:57:02.525Z,7.90
2023-01-03T15:00:54.528Z,9.67
2023-01-03T15:08:49.493Z,9.07
2023-01-03T15:12:36.258Z,10.63
2023-01-03T15:16:37.102Z,5.68
2023-01-03T15:20:27.579Z,4.80
2023-01-03T15:24:20.895Z,6.67
2023-01-03T15:28:32.919Z,6.20
2023-01-03T15:32:19.826Z,9.67
2023-01-03T15:36:20.008Z,8.00
2023-01-03T15:40:07.992Z,5.90
2023-01-03T15:43:58.181Z,10.07
2023-01-03T15:47:44.987Z,8.33
2023-01-03T15:51:39.062Z,13.70
2023-01-03T15:55:24.815Z,13.40
2023-01-03T15:59:25.417Z,7.07
2023-01-03T16:03:34.301Z,7.63
2023-01-03T16:07:25.373Z,9.13
2023-01-03T16:11:31.389Z,6.70
2023-01-03T16:19:45.641Z,6.67
2023-01-03T16:23:59.899Z,8.77
2023-01-03T16:31:49.174Z,7.68
2023-01-03T16:35:37.236Z,8.93
2023-01-03T16:39:30.631Z,12.53
2023-01-03T16:43:14.000Z,7.57
2023-01-03T16:51:22.415Z,8.37
2023-01-03T16:55:41.955Z,7.30
2023-01-03T17:03:50.168Z,12.07
2023-01-03T17:07:35.865Z,10.33
2023-01-03T17:11:40.755Z,10.93
2023-01-03T17:15:30.744Z,10.67
2023-01-03T17:23:05.275Z,14.80
2023-01-03T17:34:58.076Z,8.43
2023-01-03T17:39:09.648Z,12.13
2023-01-03T17:47:23.422Z,8.67
2023-01-03T17:51:16.563Z,6.33
2023-01-03T17:55:32.475Z,9.73
2023-01-03T17:59:26.546Z,7.23
2023-01-03T18:03:13.467Z,6.23
2023-01-03T18:11:04.047Z,12.13
2023-01-03T18:14:49.071Z,11.83
2023-01-03T18:18:33.238Z,5.83
2023-01-03T18:22:17.757Z,11.10
2023-01-03T18:26:16.261Z,8.20
2023-01-03T18:30:04.638Z,9.23
2023-01-03T18:33:53.355Z,5.93
2023-01-03T18:41:34.869Z,11.13
2023-01-03T18:45:18.105Z,8.63
2023-01-03T18:49:02.006Z,13.27
2023-01-03T18:53:00.989Z,8.30
2023-01-03T19:00:56.316Z,7.57
2023-01-03T19:04:42.949Z,9.67
2023-01-03T19:08:38.608Z,7.50
2023-01-03T19:12:24.254Z,8.13
2023-01-03T19:16:13.944Z,13.13
2023-01-03T19:20:06.283Z,7.20
2023-01-03T19:24:01.237Z,8.40
2023-01-03T19:27:50.332Z,10.33
2023-01-03T19:31:47.160Z,9.40
2023-01-03T19:35:34.125Z,9.20
2023-01-03T19:39:20.952Z,7.70
2023-01-03T19:43:07.906Z,6.73
2023-01-03T19:46:51.291Z,8.33
2023-01-03T19:50:35.422Z,7.70
2023-01-03T19:54:17.904Z,7.70
2023-01-03T19:58:06.812Z,6.33
2023-01-03T20:02:22.653Z,7.47
2023-01-03T20:05:51.418Z,5.97
2023-01-03T20:09:34.116Z,5.07
2023-01-03T20:13:19.914Z,5.40
2023-01-03T20:17:01.957Z,7.40
2023-01-03T20:20:44.782Z,6.90
2023-01-03T20:24:33.568Z,9.20
2023-01-03T20:28:29.541Z,7.23
2023-01-03T20:32:11.907Z,8.43
2023-01-03T20:36:14.144Z,11.43
2023-01-03T20:40:01.813Z,12.70
2023-01-03T20:43:44.734Z,15.90
2023-01-03T20:47:26.736Z,12.53
2023-01-03T20:51:12.407Z,14.63
2023-01-03T20:54:57.831Z,15.07
2023-01-03T20:58:40.762Z,18.63
2023-01-03T21:02:23.033Z,13.87
2023-01-03T21:06:18.194Z,11.10
2023-01-03T21:10:00.178Z,16.70
2023-01-03T21:13:42.490Z,14.33
2023-01-03T21:17:24.411Z,15.40
2023-01-03T21:21:08.621Z,19.40
2023-01-03T21:24:57.242Z,19.97
2023-01-03T21:28:39.761Z,20.30
2023-01-03T21:32:21.883Z,33.20
2023-01-03T21:36:04.186Z,18.80
2023-01-03T21:39:46.561Z,23.37
2023-01-03T21:43:28.570Z,21.37
2023-01-03T21:47:11.109Z,17.80
2023-01-03T21:50:53.245Z,24.80
2023-01-03T21:54:38.785Z,21.00
2023-01-03T21:58:22.821Z,23.33
2023-01-03T22:02:26.017Z,23.00
2023-01-03T22:06:14.763Z,22.43
2023-01-03T22:10:15.868Z,24.67
2023-01-03T22:14:01.763Z,23.87
2023-01-03T22:17:47.413Z,25.13
2023-01-03T22:21:31.489Z,20.15
2023-01-03T22:25:22.531Z,16.37
2023-01-03T22:29:06.443Z,18.73
2023-01-03T22:32:48.631Z,18.23
2023-01-03T22:36:31.727Z,19.20
2023-01-03T22:40:15.741Z,15.40
2023-01-03T22:43:59.592Z,21.37
2023-01-03T22:47:43.747Z,18.87
2023-01-03T22:51:25.848Z,18.47
2023-01-03T22:55:08.466Z,13.53
2023-01-03T22:58:50.710Z,16.20
2023-01-03T23:02:41.417Z,18.33
2023-01-03T23:06:25.498Z,12.37
2023-01-03T23:10:08.335Z,18.60
2023-01-03T23:13:53.576Z,18.47
2023-01-03T23:17:54.075Z,16.10
2023-01-03T23:21:36.211Z,15.23
2023-01-03T23:25:18.416Z,16.43
2023-01-03T23:29:01.480Z,19.87
2023-01-03T23:32:43.478Z,14.77
2023-01-03T23:36:26.492Z,16.03
2023-01-03T23:40:10.620Z,17.63
2023-01-03T23:43:53.570Z,10.60
2023-01-03T23:47:35.497Z,16.73
2023-01-03T23:51:19.939Z,19.33
2023-01-03T23:55:06.962Z,17.10
2023-01-03T23:58:55.292Z,15.40
